Grand Island, NE

11:36 AM CDT en Octubre 30, 2014 (GMT -0500)
Barr | Change Station
CLOSE
Current Station
Estación meteorológica personal
Location: Grand Island, NE
Altura: 1864 ft
Estaciones meteorológicas cercanas

Alt 1864 ft 40.90 °N, 98.34 °W | Updated 6 minutes ago

Despejado
Despejado
60.3 ° F
Sensación térmica 60.3 ° F
N
3.7
Viento Variable Viento desde ONO

Hoy
Alta -- | Baja -- ° F
--% Posibilidad de precipitaciones
Ayer
Alta -- | Baja -- ° F
Precip. -- pul
8:01 AM 6:31 PM
Creciente, 45% visible
Presión 30.17 pul
Visibilidad 10.0 Millas
Nubes Despejado
Punto de rocío 41 ° F
Humedad 49%
Precipitaciones 0.00 pul
Espesor de la nieve No disponible.
UV 2 de una escala de 12
Polen 2.10 de una escala de 12
Calidad del aire No disponible.
Flu Activity No disponible.
METAR KGRI 301553Z 33018G21KT 10SM CLR 14/03 A3017 RMK AO2 SLP216 T01390028

More Conditions Fewer Conditions

Presión 30.17 pul
Visibilidad 10.0 Millas
Nubes Despejado
Punto de rocío 41 ° F
Humedad 49%
Precipitaciones 0.00 pul
Espesor de la nieve No disponible.
UV 2 de una escala de 12
Polen 2.10 de una escala de 12
Calidad del aire No disponible.
Flu Activity No disponible.
METAR KGRI 301553Z 33018G21KT 10SM CLR 14/03 A3017 RMK AO2 SLP216 T01390028

More Conditions Fewer Conditions

10-Day Weather Forecast

Almanac

Astronomía

Oct. 30, 2014 Salida Puesta
Hora real
Crepúsculo civil
Crepúsculo náutico
Crepúsculo astronómico
Luna
Horas de luz
Horas de luz
Tomorrow will be .
, % of the Moon is Illuminated

Extremos de hoy

Máximos del estado Bajos del estado

Community

WunderPhotos

Upload Photos

1,766,399 ¡fotos cargadas!

WunderBlogs® & News

Nearby

Calidad del aire

  Calidad del aire Índice AQ Contaminante
Not available.

Grosos de nieve

Estación Profundido Altura

Actividad de terremotos

Ciudad Distance Mag. Tiempo y dato
Magnitud mínima muestra es 2,5.

Temperaturas de aguas costeras

Lugar Temperatura

Estaciones meteorológicas cercanas